createdAt,value
2019-03-30T00:01:01.862Z,61.37
2019-03-30T00:03:35.648Z,63.67
2019-03-30T00:06:09.008Z,63.40
2019-03-30T00:08:43.808Z,66.93
2019-03-30T00:11:17.329Z,76.20
2019-03-30T00:13:51.108Z,71.67
2019-03-30T00:16:25.495Z,75.27
2019-03-30T00:18:58.857Z,62.80
2019-03-30T00:21:33.337Z,66.43
2019-03-30T00:24:06.807Z,63.27
2019-03-30T00:26:40.138Z,62.23
2019-03-30T00:29:13.737Z,63.33
2019-03-30T00:31:47.261Z,63.90
2019-03-30T00:34:21.160Z,63.13
2019-03-30T00:36:54.622Z,59.60
2019-03-30T00:39:28.343Z,57.80
2019-03-30T00:42:01.712Z,59.93
2019-03-30T00:44:35.842Z,59.47
2019-03-30T00:47:09.253Z,107.80
2019-03-30T00:49:49.169Z,79.47
2019-03-30T00:52:18.295Z,72.10
2019-03-30T00:54:51.663Z,62.00
2019-03-30T00:57:25.047Z,82.40
2019-03-30T00:59:58.413Z,82.67
2019-03-30T01:02:32.090Z,74.87
2019-03-30T01:05:07.695Z,64.43
2019-03-30T01:07:41.441Z,71.03
2019-03-30T01:10:15.388Z,61.83
2019-03-30T01:12:49.339Z,65.03
2019-03-30T01:15:23.089Z,63.83
2019-03-30T01:17:57.206Z,62.37
2019-03-30T01:20:32.457Z,60.43
2019-03-30T01:23:06.144Z,53.73
2019-03-30T01:25:40.694Z,53.27
2019-03-30T01:28:15.752Z,56.33
2019-03-30T01:30:49.525Z,49.67
2019-03-30T01:33:24.091Z,50.97
2019-03-30T01:35:57.507Z,51.67
2019-03-30T01:38:31.646Z,51.80
2019-03-30T01:41:05.462Z,53.23
2019-03-30T01:43:40.146Z,57.07
2019-03-30T01:46:14.393Z,61.70
2019-03-30T01:48:48.994Z,68.77
2019-03-30T01:51:22.999Z,58.60
2019-03-30T01:53:57.296Z,49.13
2019-03-30T01:56:30.607Z,53.20
2019-03-30T01:59:05.096Z,50.93
2019-03-30T02:01:39.994Z,53.57
2019-03-30T02:04:13.509Z,66.10
2019-03-30T02:06:49.400Z,120.67
2019-03-30T02:09:24.020Z,102.23
2019-03-30T02:11:57.561Z,81.87
2019-03-30T02:14:31.259Z,83.70
2019-03-30T02:17:04.746Z,77.87
2019-03-30T02:19:38.211Z,84.07
2019-03-30T02:22:12.364Z,80.80
2019-03-30T02:24:45.729Z,73.53
2019-03-30T02:27:19.198Z,78.87
2019-03-30T02:29:52.598Z,88.47
2019-03-30T02:32:26.816Z,84.00
2019-03-30T02:35:01.315Z,81.30
2019-03-30T02:37:34.900Z,88.27
2019-03-30T02:40:08.636Z,84.43
2019-03-30T02:42:42.269Z,98.33
2019-03-30T02:45:15.914Z,75.77
2019-03-30T02:47:50.205Z,83.07
2019-03-30T02:50:27.363Z,92.53
2019-03-30T02:53:01.807Z,85.13
2019-03-30T02:55:36.101Z,76.80
2019-03-30T02:58:10.261Z,80.80
2019-03-30T03:00:44.795Z,95.33
2019-03-30T03:03:19.794Z,84.63
2019-03-30T03:05:55.123Z,81.63
2019-03-30T03:08:29.160Z,77.70
2019-03-30T03:11:03.441Z,78.37
2019-03-30T03:13:37.996Z,75.33
2019-03-30T03:16:14.492Z,73.23
2019-03-30T03:18:48.163Z,77.87
2019-03-30T03:21:21.819Z,79.57
2019-03-30T03:23:55.492Z,71.27
2019-03-30T03:26:31.997Z,72.03
2019-03-30T03:29:05.795Z,75.63
2019-03-30T03:31:39.493Z,76.23
2019-03-30T03:34:13.096Z,65.87
2019-03-30T03:36:47.259Z,83.47
2019-03-30T03:39:21.912Z,80.10
2019-03-30T03:41:56.836Z,76.57
2019-03-30T03:44:32.141Z,72.97
2019-03-30T03:47:07.997Z,52.37
2019-03-30T03:49:41.992Z,57.77
2019-03-30T03:52:15.441Z,51.37
2019-03-30T03:54:48.845Z,61.53
2019-03-30T03:57:26.692Z,62.13
2019-03-30T04:00:02.998Z,62.63
2019-03-30T04:02:39.252Z,64.10
2019-03-30T04:05:12.797Z,96.30
2019-03-30T04:07:50.013Z,107.67
2019-03-30T04:10:27.779Z,109.53
2019-03-30T04:13:06.939Z,117.20
2019-03-30T04:15:39.543Z,112.97
2019-03-30T04:18:12.920Z,99.10
2019-03-30T04:20:46.445Z,92.50
2019-03-30T04:23:20.040Z,84.07
2019-03-30T04:25:54.819Z,86.27
2019-03-30T04:28:28.360Z,91.43
2019-03-30T04:31:03.078Z,96.27
2019-03-30T04:33:37.908Z,95.33
2019-03-30T04:36:11.297Z,97.53
2019-03-30T04:38:44.761Z,90.93
2019-03-30T04:41:18.287Z,89.00
2019-03-30T04:43:51.721Z,87.73
2019-03-30T04:46:25.004Z,85.23
2019-03-30T04:49:00.251Z,84.00
2019-03-30T04:51:33.642Z,82.97
2019-03-30T04:54:07.316Z,80.50
2019-03-30T04:56:42.896Z,78.43
2019-03-30T04:59:17.101Z,78.53
2019-03-30T05:01:50.411Z,86.27
2019-03-30T05:04:28.495Z,89.67
2019-03-30T05:07:03.513Z,95.60
2019-03-30T05:09:38.887Z,89.63
2019-03-30T05:12:12.442Z,90.43
2019-03-30T05:14:46.118Z,90.67
2019-03-30T05:17:21.007Z,94.87
2019-03-30T05:19:55.940Z,84.53
2019-03-30T05:22:31.061Z,78.40
2019-03-30T05:25:05.589Z,79.47
2019-03-30T05:27:39.839Z,82.67
2019-03-30T05:30:13.701Z,87.07
2019-03-30T05:32:47.161Z,84.47
2019-03-30T05:35:20.666Z,78.77
2019-03-30T05:37:55.246Z,81.97
2019-03-30T05:40:28.841Z,106.77
2019-03-30T05:43:04.642Z,105.70
2019-03-30T05:45:38.367Z,120.83
2019-03-30T05:48:11.795Z,145.40
2019-03-30T05:50:45.139Z,196.00
2019-03-30T05:53:18.510Z,171.77
2019-03-30T05:55:53.137Z,174.40
2019-03-30T05:58:26.892Z,180.40
2019-03-30T06:01:00.291Z,153.67
2019-03-30T06:03:35.534Z,150.07
2019-03-30T06:06:09.539Z,136.77
2019-03-30T06:08:43.782Z,131.60
2019-03-30T06:11:17.101Z,120.50
2019-03-30T06:13:53.206Z,113.93
2019-03-30T06:16:26.722Z,121.83
2019-03-30T06:19:01.188Z,358.87
2019-03-30T06:21:34.959Z,138.90
2019-03-30T06:24:09.451Z,139.63
2019-03-30T06:26:42.858Z,131.10
2019-03-30T06:29:16.799Z,113.43
2019-03-30T06:31:50.706Z,113.67
2019-03-30T06:34:24.329Z,115.27
2019-03-30T06:36:58.213Z,110.23
2019-03-30T06:39:33.043Z,97.23
2019-03-30T06:42:09.185Z,95.83
2019-03-30T06:44:42.850Z,93.73
2019-03-30T06:47:16.490Z,91.93
2019-03-30T06:49:49.839Z,73.73
2019-03-30T06:52:23.710Z,90.93
2019-03-30T06:55:00.037Z,89.03
2019-03-30T06:57:35.744Z,88.50
2019-03-30T07:00:11.185Z,96.43
2019-03-30T07:02:44.890Z,102.93
2019-03-30T07:05:19.792Z,94.17
2019-03-30T07:07:54.442Z,79.37
2019-03-30T07:10:29.319Z,73.70
2019-03-30T07:13:05.195Z,73.40
2019-03-30T07:15:47.796Z,59.13
2019-03-30T07:18:22.957Z,61.47
2019-03-30T07:20:56.303Z,58.83
2019-03-30T07:23:29.960Z,59.42
2019-03-30T07:26:03.548Z,57.50
2019-03-30T07:28:37.450Z,52.75
2019-03-30T07:31:13.939Z,55.70
2019-03-30T07:33:50.006Z,59.70
2019-03-30T07:36:25.994Z,98.70
2019-03-30T07:39:00.858Z,60.40
2019-03-30T07:41:35.992Z,59.03
2019-03-30T07:44:09.589Z,60.60
2019-03-30T07:46:43.405Z,56.88
2019-03-30T07:49:16.993Z,53.83
2019-03-30T07:51:51.693Z,58.00
2019-03-30T07:54:27.741Z,62.40
2019-03-30T07:57:07.084Z,61.25
2019-03-30T07:59:36.992Z,60.60
2019-03-30T08:02:10.471Z,56.08
2019-03-30T08:04:45.458Z,49.98
2019-03-30T08:07:19.118Z,47.93
2019-03-30T08:09:54.550Z,40.98
2019-03-30T08:12:28.794Z,46.83
2019-03-30T08:15:02.755Z,43.48
2019-03-30T08:17:36.547Z,48.02
2019-03-30T08:20:12.046Z,42.67
2019-03-30T08:22:47.442Z,38.00
2019-03-30T08:25:21.042Z,36.13
2019-03-30T08:27:55.694Z,40.03
2019-03-30T08:30:29.538Z,35.88
2019-03-30T08:33:04.291Z,29.75
2019-03-30T08:35:37.784Z,29.55
2019-03-30T08:38:14.188Z,30.37
2019-03-30T08:40:47.992Z,26.70
2019-03-30T08:43:22.542Z,30.95
2019-03-30T08:45:58.896Z,27.75
2019-03-30T08:48:32.638Z,30.30
2019-03-30T08:51:07.001Z,31.97
2019-03-30T08:53:53.737Z,34.95
2019-03-30T08:56:15.787Z,36.70
2019-03-30T08:58:49.522Z,35.43
2019-03-30T09:01:22.959Z,35.90
2019-03-30T09:03:56.749Z,36.80
2019-03-30T09:06:30.012Z,37.88
2019-03-30T09:09:03.994Z,33.05
2019-03-30T09:11:37.646Z,32.90
2019-03-30T09:14:12.808Z,30.05
2019-03-30T09:16:47.039Z,29.55
2019-03-30T09:19:23.313Z,32.30
2019-03-30T09:21:56.918Z,35.17
2019-03-30T09:24:30.250Z,33.78
2019-03-30T09:27:03.676Z,30.65
2019-03-30T09:29:37.054Z,31.35
2019-03-30T09:32:14.678Z,37.45
2019-03-30T09:34:45.375Z,36.00
2019-03-30T09:37:18.831Z,31.35
2019-03-30T09:39:52.302Z,33.65
2019-03-30T09:42:25.687Z,35.25
2019-03-30T09:44:59.102Z,36.08
2019-03-30T09:47:32.503Z,34.08
2019-03-30T09:50:08.874Z,34.78
2019-03-30T09:52:43.302Z,33.35
2019-03-30T09:55:16.764Z,33.58
2019-03-30T09:57:50.157Z,36.15
2019-03-30T10:00:23.536Z,31.93
2019-03-30T10:02:56.950Z,34.45
2019-03-30T10:05:30.294Z,29.55
2019-03-30T10:08:03.733Z,34.70
2019-03-30T10:10:37.112Z,34.73
2019-03-30T10:13:11.514Z,34.67
2019-03-30T10:15:44.878Z,35.63
2019-03-30T10:18:18.213Z,36.60
2019-03-30T10:20:51.598Z,38.15
2019-03-30T10:23:24.894Z,38.70
2019-03-30T10:25:58.238Z,36.35
2019-03-30T10:28:31.567Z,36.42
2019-03-30T10:31:04.934Z,35.88
2019-03-30T10:33:38.342Z,36.65
2019-03-30T10:36:12.707Z,35.85
2019-03-30T10:38:46.113Z,36.88
2019-03-30T10:41:19.481Z,37.17
2019-03-30T10:43:52.877Z,34.30
2019-03-30T10:46:27.420Z,34.23
2019-03-30T10:49:00.872Z,33.15
2019-03-30T10:51:34.249Z,36.25
2019-03-30T10:54:15.414Z,34.70
2019-03-30T10:56:48.789Z,32.17
2019-03-30T10:59:22.199Z,35.45
2019-03-30T11:01:55.530Z,34.43
2019-03-30T11:04:28.848Z,33.30
2019-03-30T11:07:02.160Z,33.33
2019-03-30T11:09:35.609Z,33.67
2019-03-30T11:12:09.513Z,31.52
2019-03-30T11:14:44.610Z,31.62
2019-03-30T11:17:19.487Z,32.03
2019-03-30T11:19:52.981Z,31.55
2019-03-30T11:22:27.538Z,31.55
2019-03-30T11:25:07.687Z,92.37
2019-03-30T11:27:36.082Z,33.05
2019-03-30T11:30:10.030Z,29.75
2019-03-30T11:32:44.407Z,28.95
2019-03-30T11:35:17.807Z,25.90
2019-03-30T11:37:51.179Z,27.80
2019-03-30T11:40:24.616Z,30.68
2019-03-30T11:42:58.026Z,29.75
2019-03-30T11:45:31.522Z,29.63
2019-03-30T11:48:08.067Z,27.35
2019-03-30T11:50:41.520Z,28.92
2019-03-30T11:53:14.929Z,26.87
2019-03-30T11:55:50.118Z,24.55
2019-03-30T11:58:24.515Z,24.80
2019-03-30T12:00:57.936Z,28.50
2019-03-30T12:03:31.260Z,27.52
2019-03-30T12:06:04.706Z,26.42
2019-03-30T12:08:38.298Z,24.90
2019-03-30T12:11:11.737Z,24.80
2019-03-30T12:13:45.268Z,25.50
2019-03-30T12:16:19.187Z,24.15
2019-03-30T12:18:56.117Z,25.00
2019-03-30T12:21:30.059Z,25.70
2019-03-30T12:24:04.624Z,22.50
2019-03-30T12:26:38.501Z,24.80
2019-03-30T12:29:12.420Z,22.80
2019-03-30T12:31:45.849Z,24.80
2019-03-30T12:34:19.378Z,23.25
2019-03-30T12:36:55.609Z,24.30
2019-03-30T12:39:29.807Z,24.02
2019-03-30T12:42:03.343Z,23.30
2019-03-30T12:44:36.751Z,19.57
2019-03-30T12:47:10.608Z,18.42
2019-03-30T12:49:45.418Z,23.77
2019-03-30T12:52:19.802Z,18.70
2019-03-30T12:54:53.159Z,21.07
2019-03-30T12:57:26.529Z,21.37
2019-03-30T13:00:01.611Z,19.32
2019-03-30T13:02:35.130Z,19.12
2019-03-30T13:05:09.041Z,19.00
2019-03-30T13:07:42.438Z,17.60
2019-03-30T13:10:16.689Z,16.93
2019-03-30T13:12:50.161Z,16.95
2019-03-30T13:15:23.557Z,18.52
2019-03-30T13:17:56.989Z,21.75
2019-03-30T13:20:30.680Z,16.12
2019-03-30T13:23:04.040Z,13.90
2019-03-30T13:25:37.460Z,15.95
2019-03-30T13:28:10.947Z,15.03
2019-03-30T13:30:46.061Z,15.80
2019-03-30T13:33:19.411Z,16.17
2019-03-30T13:35:52.842Z,14.95
2019-03-30T13:38:27.240Z,10.60
2019-03-30T13:41:00.728Z,13.43
2019-03-30T13:43:34.268Z,14.30
2019-03-30T13:46:07.818Z,14.30
2019-03-30T13:48:41.197Z,15.35
2019-03-30T13:51:14.643Z,15.75
2019-03-30T13:53:48.033Z,13.83
2019-03-30T13:56:27.375Z,15.35
2019-03-30T13:59:00.840Z,15.90
2019-03-30T14:01:34.240Z,15.23
2019-03-30T14:04:08.811Z,14.98
2019-03-30T14:06:43.917Z,13.28
2019-03-30T14:09:22.122Z,14.70
2019-03-30T14:11:56.791Z,13.43
2019-03-30T14:14:30.222Z,13.62
2019-03-30T14:17:05.303Z,12.58
2019-03-30T14:19:39.878Z,13.53
2019-03-30T14:22:13.303Z,12.55
2019-03-30T14:24:46.678Z,15.00
2019-03-30T14:27:20.102Z,16.23
2019-03-30T14:29:54.511Z,15.88
2019-03-30T14:32:29.025Z,14.75
2019-03-30T14:35:02.541Z,16.57
2019-03-30T14:37:36.068Z,14.90
2019-03-30T14:40:12.663Z,16.85
2019-03-30T14:42:46.068Z,12.30
2019-03-30T14:45:19.541Z,11.05
2019-03-30T14:47:52.977Z,10.78
2019-03-30T14:50:26.512Z,11.93
2019-03-30T14:52:59.917Z,13.30
2019-03-30T14:55:33.333Z,10.88
2019-03-30T14:58:06.845Z,10.88
2019-03-30T15:00:41.809Z,11.57
2019-03-30T15:03:15.348Z,10.98
2019-03-30T15:05:48.742Z,9.70
2019-03-30T15:08:22.251Z,11.40
2019-03-30T15:10:55.647Z,12.05
2019-03-30T15:13:34.021Z,12.43
2019-03-30T15:16:07.521Z,10.55
2019-03-30T15:18:40.969Z,10.43
2019-03-30T15:21:18.808Z,12.05
2019-03-30T15:23:52.223Z,11.08
2019-03-30T15:26:26.772Z,10.90
2019-03-30T15:29:00.178Z,10.95
2019-03-30T15:31:33.574Z,11.73
2019-03-30T15:34:07.119Z,22.37
2019-03-30T15:36:40.449Z,15.63
2019-03-30T15:39:13.913Z,11.20
2019-03-30T15:41:47.389Z,10.68
2019-03-30T15:44:23.723Z,10.82
2019-03-30T15:46:57.100Z,11.25
2019-03-30T15:49:31.579Z,11.65
2019-03-30T15:52:13.893Z,11.38
2019-03-30T15:54:40.092Z,12.07
2019-03-30T15:57:14.547Z,11.20
2019-03-30T15:59:47.990Z,10.98
2019-03-30T16:02:21.405Z,13.35
2019-03-30T16:04:54.814Z,12.40
2019-03-30T16:07:28.280Z,12.40
2019-03-30T16:10:02.700Z,9.15
2019-03-30T16:12:37.115Z,8.45
2019-03-30T16:15:10.820Z,8.40
2019-03-30T16:17:44.331Z,8.40
2019-03-30T16:20:17.820Z,8.10
2019-03-30T16:22:51.158Z,8.38
2019-03-30T16:25:24.575Z,8.20
2019-03-30T16:27:57.878Z,8.73
2019-03-30T16:30:31.382Z,8.53
2019-03-30T16:33:04.792Z,9.13
2019-03-30T16:35:38.195Z,10.03
2019-03-30T16:38:11.558Z,8.83
2019-03-30T16:40:45.167Z,9.25
2019-03-30T16:43:18.539Z,19.32
2019-03-30T16:45:51.936Z,14.55
2019-03-30T16:48:25.301Z,25.30
2019-03-30T16:50:58.652Z,67.55
2019-03-30T16:53:32.088Z,55.80
2019-03-30T16:56:08.073Z,47.55
2019-03-30T16:58:44.516Z,27.37
2019-03-30T17:01:17.951Z,27.20
2019-03-30T17:04:03.611Z,153.30
2019-03-30T17:06:27.522Z,294.25
2019-03-30T17:09:00.918Z,121.13
2019-03-30T17:11:36.401Z,79.45
2019-03-30T17:14:09.824Z,37.83
2019-03-30T17:16:43.230Z,32.05
2019-03-30T17:19:16.705Z,23.32
2019-03-30T17:21:50.211Z,23.45
2019-03-30T17:24:28.058Z,18.32
2019-03-30T17:27:02.439Z,14.78
2019-03-30T17:29:35.821Z,13.18
2019-03-30T17:32:09.240Z,12.47
2019-03-30T17:34:43.826Z,12.18
2019-03-30T17:37:21.495Z,13.08
2019-03-30T17:39:56.130Z,31.57
2019-03-30T17:42:29.532Z,27.37
2019-03-30T17:45:02.944Z,14.18
2019-03-30T17:47:36.331Z,12.98
2019-03-30T17:50:11.587Z,14.23
2019-03-30T17:52:45.010Z,13.10
2019-03-30T17:55:32.717Z,13.70
2019-03-30T17:57:54.594Z,15.05
2019-03-30T18:00:27.990Z,16.05
2019-03-30T18:03:01.484Z,16.05
2019-03-30T18:05:34.836Z,16.23
2019-03-30T18:08:08.299Z,16.90
2019-03-30T18:10:41.677Z,17.25
2019-03-30T18:13:16.274Z,22.45
2019-03-30T18:15:49.798Z,20.23
2019-03-30T18:18:25.350Z,28.20
2019-03-30T18:20:58.753Z,19.25
2019-03-30T18:23:32.172Z,18.82
2019-03-30T18:26:05.558Z,18.87
2019-03-30T18:28:38.979Z,20.35
2019-03-30T18:31:12.460Z,19.40
2019-03-30T18:33:47.268Z,18.85
2019-03-30T18:36:21.583Z,19.75
2019-03-30T18:39:09.380Z,20.48
2019-03-30T18:41:35.928Z,22.10
2019-03-30T18:44:10.200Z,22.48
2019-03-30T18:46:45.336Z,31.73
2019-03-30T18:49:21.392Z,34.53
2019-03-30T18:51:57.301Z,28.70
2019-03-30T18:54:31.908Z,27.75
2019-03-30T18:57:06.254Z,31.07
2019-03-30T18:59:40.553Z,31.20
2019-03-30T19:02:19.080Z,30.23
2019-03-30T19:04:56.641Z,29.47
2019-03-30T19:07:35.035Z,31.27
2019-03-30T19:10:11.685Z,31.30
2019-03-30T19:12:47.233Z,31.67
2019-03-30T19:15:22.986Z,31.17
2019-03-30T19:17:59.888Z,32.00
2019-03-30T19:20:37.037Z,30.80
2019-03-30T19:23:16.320Z,30.20
2019-03-30T19:25:53.837Z,30.20
2019-03-30T19:28:30.757Z,31.80
2019-03-30T19:31:07.582Z,33.03
2019-03-30T19:33:45.631Z,35.95
2019-03-30T19:36:22.086Z,36.30
2019-03-30T19:38:58.190Z,37.00
2019-03-30T19:41:37.139Z,43.67
2019-03-30T19:44:13.741Z,45.30
2019-03-30T19:46:50.435Z,66.47
2019-03-30T19:49:26.939Z,146.83
2019-03-30T19:52:05.821Z,134.23
2019-03-30T19:54:43.584Z,308.90
2019-03-30T19:57:20.087Z,318.93
2019-03-30T19:59:55.938Z,316.43
2019-03-30T20:02:32.287Z,352.00
2019-03-30T20:05:10.236Z,298.80
2019-03-30T20:07:45.965Z,334.30
2019-03-30T20:10:22.388Z,310.87
2019-03-30T20:12:58.714Z,274.80
2019-03-30T20:15:34.762Z,177.47
2019-03-30T20:18:10.966Z,184.90
2019-03-30T20:20:48.213Z,160.57
2019-03-30T20:23:25.652Z,154.70
2019-03-30T20:26:03.663Z,143.90
2019-03-30T20:28:39.217Z,147.10
2019-03-30T20:31:16.946Z,133.90
2019-03-30T20:33:54.322Z,138.17
2019-03-30T20:36:35.230Z,127.13
2019-03-30T20:39:11.288Z,116.33
2019-03-30T20:41:45.245Z,107.00
2019-03-30T20:44:19.605Z,107.57
2019-03-30T20:46:53.190Z,99.27
2019-03-30T20:49:26.920Z,98.37
2019-03-30T20:52:00.964Z,92.53
2019-03-30T20:54:36.158Z,103.00
2019-03-30T20:57:09.869Z,110.13
2019-03-30T20:59:45.781Z,100.37
2019-03-30T21:02:19.462Z,108.53
2019-03-30T21:04:52.869Z,119.57
2019-03-30T21:07:27.565Z,126.30
2019-03-30T21:10:02.150Z,154.53
2019-03-30T21:12:39.078Z,148.27
2019-03-30T21:15:13.925Z,121.43
2019-03-30T21:17:49.494Z,113.10
2019-03-30T21:20:23.746Z,108.70
2019-03-30T21:23:01.697Z,105.97
2019-03-30T21:25:40.289Z,107.03
2019-03-30T21:28:16.496Z,122.70
2019-03-30T21:30:52.848Z,140.03
2019-03-30T21:33:31.884Z,166.53
2019-03-30T21:36:08.074Z,305.40
2019-03-30T21:38:42.176Z,283.47
2019-03-30T21:41:19.419Z,288.53
2019-03-30T21:43:54.023Z,140.43
2019-03-30T21:46:29.199Z,211.23
2019-03-30T21:49:03.263Z,182.87
2019-03-30T21:51:37.127Z,173.87
2019-03-30T21:54:11.845Z,210.10
2019-03-30T21:56:47.310Z,224.13
2019-03-30T21:59:26.786Z,224.47
2019-03-30T22:02:01.118Z,199.43
2019-03-30T22:04:37.123Z,213.97
2019-03-30T22:07:12.573Z,226.23
2019-03-30T22:09:48.301Z,315.20
2019-03-30T22:12:28.579Z,358.93
2019-03-30T22:15:05.910Z,353.23
2019-03-30T22:17:40.611Z,370.63
2019-03-30T22:20:21.100Z,228.03
2019-03-30T22:22:58.868Z,190.97
2019-03-30T22:25:36.918Z,161.67
2019-03-30T22:28:14.263Z,151.20
2019-03-30T22:30:48.237Z,134.93
2019-03-30T22:33:22.789Z,129.13
2019-03-30T22:35:56.468Z,124.73
2019-03-30T22:38:29.789Z,130.13
2019-03-30T22:41:03.266Z,137.67
2019-03-30T22:43:37.891Z,125.60
2019-03-30T22:46:12.101Z,119.57
2019-03-30T22:48:47.084Z,117.73
2019-03-30T22:51:20.518Z,108.17
2019-03-30T22:53:54.966Z,107.10
2019-03-30T22:56:29.192Z,107.20
2019-03-30T22:59:02.976Z,97.37
2019-03-30T23:01:36.331Z,103.30
2019-03-30T23:04:09.694Z,94.93
2019-03-30T23:06:43.042Z,101.70
2019-03-30T23:09:16.429Z,97.23
2019-03-30T23:11:49.725Z,95.07
2019-03-30T23:14:46.992Z,93.57
2019-03-30T23:17:20.294Z,86.73
2019-03-30T23:19:53.799Z,90.87
2019-03-30T23:22:27.162Z,81.40
2019-03-30T23:25:00.567Z,86.20
2019-03-30T23:27:34.122Z,83.47
2019-03-30T23:30:09.320Z,81.43
2019-03-30T23:32:42.771Z,81.27
2019-03-30T23:35:16.166Z,82.10
2019-03-30T23:37:49.550Z,80.80
2019-03-30T23:40:22.941Z,79.07
2019-03-30T23:43:01.395Z,83.23
2019-03-30T23:45:34.788Z,79.10
2019-03-30T23:48:08.150Z,78.80
2019-03-30T23:50:41.575Z,73.60
2019-03-30T23:53:14.944Z,78.67
2019-03-30T23:55:48.331Z,77.20
2019-03-30T23:58:21.683Z,78.37
